Time;durP1;ratioP1;P1;durP2;ratioP2;P2;SDS_P1;SDS_P2;PMS_P1;PMS_P2;Temp;Humidity;BMP_temperature;BMP_pressure;BME280_temperature;BME280_humidity;BME280_pressure;Samples;Min_cycle;Max_cycle;Signal;HPM_P1;HPM_P2
2023/09/23 00:00:50;;;;;;;7.10;6.40;;;13.00;99.90;;;;;;4995408;28;20207;-77
2023/09/23 00:03:18;;;;;;;8.33;6.57;;;13.10;99.90;;;;;;4987530;28;20196;-77
2023/09/23 00:05:45;;;;;;;9.18;7.35;;;13.00;99.90;;;;;;4984366;28;20211;-77
2023/09/23 00:08:13;;;;;;;7.10;6.40;;;13.20;99.90;;;;;;5009072;28;20227;-77
2023/09/23 00:10:41;;;;;;;8.15;6.93;;;13.20;99.90;;;;;;4987449;28;20213;-77
2023/09/23 00:13:08;;;;;;;7.95;6.85;;;13.20;99.90;;;;;;4990047;28;20308;-77
2023/09/23 00:15:41;;;;;;;8.10;6.97;;;13.40;99.90;;;;;;4985365;28;20204;-77
2023/09/23 00:18:08;;;;;;;10.73;7.27;;;13.30;99.90;;;;;;4988442;28;20243;-77
2023/09/23 00:20:36;;;;;;;8.33;7.47;;;13.20;99.90;;;;;;4985325;28;20220;-77
2023/09/23 00:23:05;;;;;;;8.55;7.25;;;13.20;99.90;;;;;;4986912;28;20200;-78
2023/09/23 00:25:57;;;;;;;9.05;7.78;;;13.20;99.90;;;;;;4982164;28;20200;-77
2023/09/23 00:28:25;;;;;;;8.63;6.67;;;13.10;99.90;;;;;;4985450;28;20221;-77
2023/09/23 00:30:54;;;;;;;7.70;6.90;;;13.20;99.90;;;;;;4991050;28;20566;-77
2023/09/23 00:33:22;;;;;;;8.43;7.53;;;13.20;99.90;;;;;;4989677;28;20237;-79
2023/09/23 00:35:50;;;;;;;8.95;7.22;;;13.10;99.90;;;;;;4990726;28;20200;-77
2023/09/23 00:38:18;;;;;;;9.95;6.85;;;13.10;99.90;;;;;;4983175;28;20221;-77
2023/09/23 00:40:47;;;;;;;8.68;6.60;;;13.20;99.90;;;;;;4990405;28;20571;-77
2023/09/23 00:43:17;;;;;;;7.88;6.93;;;13.20;99.90;;;;;;4991719;28;20205;-77
2023/09/23 00:45:48;;;;;;;9.45;7.32;;;13.20;99.90;;;;;;4996661;28;20209;-77
2023/09/23 00:48:20;;;;;;;9.05;7.38;;;13.00;99.90;;;;;;5003520;28;20217;-77
2023/09/23 00:50:48;;;;;;;9.27;7.50;;;13.00;99.90;;;;;;4983440;28;20531;-77
2023/09/23 00:53:16;;;;;;;7.90;6.70;;;13.00;99.90;;;;;;4986404;28;20220;-77
2023/09/23 00:55:51;;;;;;;8.82;7.65;;;13.00;99.90;;;;;;4999116;28;20205;-77
2023/09/23 00:58:20;;;;;;;7.60;6.53;;;13.00;99.90;;;;;;4976051;28;20232;-77
2023/09/23 01:00:51;;;;;;;8.03;6.77;;;12.90;99.90;;;;;;4983840;28;20196;-77
2023/09/23 01:03:20;;;;;;;8.10;6.50;;;12.90;99.90;;;;;;4983072;28;20204;-77
2023/09/23 01:05:49;;;;;;;8.07;6.38;;;13.00;99.90;;;;;;4990361;28;20215;-77
2023/09/23 01:08:19;;;;;;;6.82;6.10;;;13.10;99.90;;;;;;4983325;28;20216;-77
2023/09/23 01:10:49;;;;;;;7.85;5.55;;;13.10;99.90;;;;;;4979799;28;20219;-77
2023/09/23 01:13:19;;;;;;;6.55;5.18;;;13.00;99.90;;;;;;4990910;28;20220;-77
2023/09/23 01:15:47;;;;;;;6.03;5.43;;;13.00;99.90;;;;;;4985927;28;20208;-78
2023/09/23 01:18:14;;;;;;;5.80;5.20;;;13.00;99.90;;;;;;4991195;28;20239;-77
2023/09/23 01:20:44;;;;;;;7.37;5.47;;;13.00;99.90;;;;;;4991286;28;20280;-77
2023/09/23 01:23:13;;;;;;;5.97;4.83;;;13.00;99.90;;;;;;4982792;28;20199;-77
2023/09/23 01:25:41;;;;;;;5.80;5.03;;;12.90;99.90;;;;;;4977587;28;20224;-77
2023/09/23 01:28:12;;;;;;;6.03;4.97;;;13.00;99.90;;;;;;4979843;28;20224;-77
2023/09/23 01:30:40;;;;;;;5.78;5.05;;;13.00;99.90;;;;;;4988693;28;20204;-77
2023/09/23 01:33:08;;;;;;;4.87;4.30;;;13.00;99.90;;;;;;4985631;28;20224;-78
2023/09/23 01:35:36;;;;;;;5.00;4.50;;;12.80;99.90;;;;;;4986725;28;20205;-77
2023/09/23 01:38:05;;;;;;;4.65;4.25;;;12.90;99.90;;;;;;4983208;28;20220;-77
2023/09/23 01:40:36;;;;;;;4.80;4.33;;;12.90;99.90;;;;;;4983158;28;20201;-77
2023/09/23 01:43:04;;;;;;;4.90;4.40;;;12.90;99.90;;;;;;4990835;28;20211;-77
2023/09/23 01:45:32;;;;;;;5.37;3.90;;;12.80;99.90;;;;;;4987940;28;20208;-78
2023/09/23 01:48:00;;;;;;;4.30;3.90;;;12.80;99.90;;;;;;4979224;28;20227;-77
2023/09/23 01:50:27;;;;;;;3.67;3.35;;;12.90;99.90;;;;;;4986818;28;20208;-77
2023/09/23 01:52:59;;;;;;;4.83;3.40;;;12.80;99.90;;;;;;4985544;28;20712;-78
2023/09/23 01:55:26;;;;;;;3.83;3.53;;;12.70;99.90;;;;;;4990773;28;20200;-78
2023/09/23 01:57:55;;;;;;;3.67;3.37;;;12.60;99.90;;;;;;4993945;28;20243;-77
2023/09/23 02:00:26;;;;;;;4.77;3.30;;;12.80;99.90;;;;;;4989765;28;20200;-77
2023/09/23 02:02:54;;;;;;;3.93;3.53;;;12.70;99.90;;;;;;4985839;28;20568;-77
2023/09/23 02:05:24;;;;;;;4.77;3.50;;;12.80;99.90;;;;;;4988976;28;20217;-77
2023/09/23 02:07:51;;;;;;;3.80;3.20;;;12.90;99.90;;;;;;4980742;28;20228;-77
2023/09/23 02:10:21;;;;;;;3.13;2.83;;;12.90;99.90;;;;;;5005065;28;20205;-77
2023/09/23 02:12:49;;;;;;;4.43;3.33;;;13.00;99.90;;;;;;4993729;28;20212;-77
2023/09/23 02:15:18;;;;;;;3.47;2.97;;;13.00;99.90;;;;;;4992375;28;20200;-79
2023/09/23 02:17:47;;;;;;;3.78;3.38;;;12.80;99.90;;;;;;4988687;28;20229;-77
2023/09/23 02:20:19;;;;;;;3.30;3.00;;;12.80;99.90;;;;;;4993508;28;20204;-77
2023/09/23 02:22:47;;;;;;;3.17;2.87;;;12.70;99.90;;;;;;4995474;28;20200;-78
2023/09/23 02:25:16;;;;;;;6.07;3.47;;;12.70;99.90;;;;;;4995324;28;20571;-77
2023/09/23 02:27:45;;;;;;;3.77;2.97;;;12.80;99.90;;;;;;4991976;28;20221;-77
2023/09/23 02:30:13;;;;;;;4.10;3.70;;;12.80;99.90;;;;;;4992951;28;20220;-77
2023/09/23 02:32:44;;;;;;;5.17;3.63;;;12.80;99.90;;;;;;4983133;28;20232;-78
2023/09/23 02:35:16;;;;;;;4.72;4.03;;;12.80;99.90;;;;;;4992683;28;20212;-77
2023/09/23 02:37:45;;;;;;;4.70;3.80;;;12.80;99.90;;;;;;4993152;28;20229;-77
2023/09/23 02:40:14;;;;;;;5.50;4.10;;;12.90;99.90;;;;;;4984142;28;20733;-77
2023/09/23 02:42:42;;;;;;;5.40;4.43;;;12.90;99.90;;;;;;4989297;28;20196;-77
2023/09/23 02:45:10;;;;;;;4.67;4.10;;;13.00;99.90;;;;;;4988225;28;20201;-80
2023/09/23 02:47:38;;;;;;;5.38;4.72;;;13.00;99.90;;;;;;4989894;28;20221;-77
2023/09/23 02:50:09;;;;;;;6.50;4.75;;;12.90;99.90;;;;;;4993141;28;20215;-78
2023/09/23 02:52:38;;;;;;;5.70;5.07;;;12.90;99.90;;;;;;5002804;28;20232;-77
2023/09/23 02:55:10;;;;;;;6.93;6.18;;;12.80;99.90;;;;;;4993325;28;20216;-77
2023/09/23 02:57:38;;;;;;;7.20;5.80;;;12.90;99.90;;;;;;4995561;28;20224;-77
2023/09/23 03:00:16;;;;;;;7.50;6.30;;;12.80;99.90;;;;;;4987868;28;20211;-77
2023/09/23 03:02:47;;;;;;;8.40;5.88;;;12.90;99.90;;;;;;4989689;28;20197;-77
2023/09/23 03:05:17;;;;;;;7.20;5.18;;;12.90;99.90;;;;;;4982008;28;20212;-77
2023/09/23 03:07:48;;;;;;;8.18;5.43;;;12.90;99.90;;;;;;4989654;28;20216;-76
2023/09/23 03:10:31;;;;;;;6.63;4.88;;;12.80;99.90;;;;;;4984331;28;20204;-77
2023/09/23 03:13:05;;;;;;;8.23;5.18;;;12.90;99.90;;;;;;4983568;28;20224;-77
2023/09/23 03:15:37;;;;;;;7.55;4.88;;;12.80;99.90;;;;;;4990164;28;20208;-77
2023/09/23 03:18:05;;;;;;;6.00;4.50;;;12.90;99.90;;;;;;4984082;28;20229;-77
2023/09/23 03:20:36;;;;;;;7.85;4.80;;;12.80;99.90;;;;;;4985816;28;20205;-77
2023/09/23 03:23:09;;;;;;;6.03;4.20;;;12.90;99.90;;;;;;4987473;28;20208;-77
2023/09/23 03:25:43;;;;;;;6.23;3.60;;;12.90;99.90;;;;;;4992348;28;20197;-78
2023/09/23 03:28:10;;;;;;;6.37;4.20;;;12.80;99.90;;;;;;5007560;28;20217;-77
2023/09/23 03:30:38;;;;;;;7.13;4.07;;;12.70;99.90;;;;;;4984444;28;20217;-77
2023/09/23 03:33:06;;;;;;;6.10;3.77;;;12.70;99.90;;;;;;4986226;28;20595;-78
2023/09/23 03:35:37;;;;;;;4.50;3.53;;;12.90;99.90;;;;;;5005361;28;20213;-77
2023/09/23 03:38:06;;;;;;;7.93;3.73;;;12.80;99.90;;;;;;4991815;28;20216;-77
2023/09/23 03:40:34;;;;;;;5.00;3.35;;;12.80;99.90;;;;;;4994862;28;20203;-78
2023/09/23 03:43:01;;;;;;;8.20;3.63;;;12.80;99.90;;;;;;4993967;28;20197;-77
2023/09/23 03:45:33;;;;;;;6.20;3.37;;;12.80;99.90;;;;;;4990565;28;20197;-77
2023/09/23 03:48:00;;;;;;;6.20;3.63;;;12.70;99.90;;;;;;4989407;28;20678;-77
2023/09/23 03:50:28;;;;;;;5.37;3.23;;;12.70;99.90;;;;;;4986591;28;20201;-77
2023/09/23 03:52:56;;;;;;;4.97;2.70;;;12.60;99.90;;;;;;4994130;28;20632;-77
2023/09/23 03:55:24;;;;;;;6.00;3.10;;;12.70;99.90;;;;;;4993379;28;20207;-77
2023/09/23 03:57:53;;;;;;;4.67;3.20;;;12.70;99.90;;;;;;4982856;28;20584;-77
2023/09/23 04:00:26;;;;;;;4.83;3.00;;;12.60;99.90;;;;;;4986209;28;20205;-77
2023/09/23 04:02:54;;;;;;;5.13;3.20;;;12.70;99.90;;;;;;4985887;28;20212;-77
2023/09/23 04:05:23;;;;;;;7.83;3.33;;;12.70;99.90;;;;;;4986389;28;20203;-77
2023/09/23 04:07:51;;;;;;;3.93;2.60;;;12.70;99.90;;;;;;4994823;28;20583;-77
2023/09/23 04:10:23;;;;;;;5.90;2.87;;;12.70;99.90;;;;;;4991132;28;20200;-78
2023/09/23 04:12:51;;;;;;;4.33;3.03;;;12.70;99.90;;;;;;4992865;28;20211;-77
2023/09/23 04:15:19;;;;;;;6.43;3.10;;;12.60;99.90;;;;;;4983759;28;20232;-76
2023/09/23 04:17:47;;;;;;;5.03;2.87;;;12.60;99.90;;;;;;4982434;28;20228;-77
2023/09/23 04:20:15;;;;;;;5.33;3.30;;;12.60;99.90;;;;;;4989644;28;20207;-77
2023/09/23 04:22:44;;;;;;;4.77;3.00;;;12.60;99.90;;;;;;5012712;23;20222;-76
2023/09/23 04:25:13;;;;;;;6.23;3.30;;;12.60;99.90;;;;;;5003610;28;20675;-76
2023/09/23 04:27:42;;;;;;;3.40;3.07;;;12.70;99.90;;;;;;5001772;28;20563;-77
2023/09/23 04:30:12;;;;;;;4.80;2.53;;;12.70;99.90;;;;;;4998234;28;20199;-76
2023/09/23 04:32:40;;;;;;;4.80;2.73;;;12.70;99.90;;;;;;4995653;28;20226;-77
2023/09/23 04:35:08;;;;;;;6.83;2.93;;;12.70;99.90;;;;;;5008986;28;20227;-77
2023/09/23 04:37:37;;;;;;;6.77;2.67;;;12.80;99.90;;;;;;5005562;28;20661;-76
2023/09/23 04:40:09;;;;;;;5.03;2.63;;;12.80;99.90;;;;;;5005596;28;20204;-77
2023/09/23 04:42:36;;;;;;;5.28;2.78;;;12.80;99.90;;;;;;4994186;28;20247;-76
2023/09/23 04:45:07;;;;;;;4.57;2.63;;;12.90;99.90;;;;;;5009562;28;20195;-77
2023/09/23 04:47:36;;;;;;;5.28;2.67;;;12.90;99.90;;;;;;5004045;28;20192;-77
2023/09/23 04:50:04;;;;;;;5.53;2.37;;;12.90;99.90;;;;;;4998728;28;20204;-77
2023/09/23 04:52:32;;;;;;;5.22;2.50;;;12.80;99.90;;;;;;5006805;28;20223;-76
2023/09/23 04:55:00;;;;;;;6.57;3.30;;;12.90;99.90;;;;;;5014501;28;20715;-76
2023/09/23 04:57:27;;;;;;;4.80;2.63;;;12.90;99.90;;;;;;5011134;28;20211;-76
2023/09/23 04:59:57;;;;;;;7.00;3.08;;;12.90;99.90;;;;;;5007515;28;20206;-76
2023/09/23 05:02:26;;;;;;;4.32;2.50;;;12.90;99.90;;;;;;4995826;28;20217;-76
2023/09/23 05:04:54;;;;;;;4.72;2.70;;;12.80;99.90;;;;;;5008824;28;20676;-76
2023/09/23 05:07:21;;;;;;;4.00;2.53;;;12.80;99.90;;;;;;5007738;28;20212;-76
2023/09/23 05:09:49;;;;;;;4.97;2.53;;;12.80;99.90;;;;;;5002687;28;20204;-77
2023/09/23 05:12:18;;;;;;;3.03;2.75;;;12.80;99.90;;;;;;5010213;28;20581;-77
2023/09/23 05:14:46;;;;;;;5.57;2.83;;;12.80;99.90;;;;;;4995527;28;20219;-76
2023/09/23 05:17:21;;;;;;;3.93;2.70;;;12.70;99.90;;;;;;5001719;28;20211;-76
2023/09/23 05:19:50;;;;;;;6.57;3.25;;;12.80;99.90;;;;;;5016346;28;20695;-76
2023/09/23 05:22:17;;;;;;;3.95;3.50;;;12.80;99.90;;;;;;5007099;28;20302;-76
2023/09/23 05:24:47;;;;;;;4.03;3.13;;;12.80;99.90;;;;;;5005679;28;20670;-76
2023/09/23 05:27:15;;;;;;;3.97;3.20;;;12.80;99.90;;;;;;5005057;28;20788;-76
2023/09/23 05:29:43;;;;;;;5.88;3.53;;;12.80;99.90;;;;;;5007580;28;20207;-76
2023/09/23 05:32:11;;;;;;;6.78;3.63;;;12.80;99.90;;;;;;4997748;28;20607;-76
2023/09/23 05:34:39;;;;;;;5.72;3.42;;;12.80;99.90;;;;;;4999817;28;20638;-76
2023/09/23 05:37:12;;;;;;;5.22;3.72;;;12.90;99.90;;;;;;5006406;28;20216;-76
2023/09/23 05:39:44;;;;;;;7.10;4.20;;;12.80;99.90;;;;;;5003820;28;20212;-76
2023/09/23 05:42:13;;;;;;;5.33;3.60;;;12.80;99.90;;;;;;5007762;28;20231;-76
2023/09/23 05:44:41;;;;;;;9.27;3.92;;;12.80;99.90;;;;;;5009465;28;20246;-76
2023/09/23 05:47:08;;;;;;;7.43;4.20;;;12.80;99.90;;;;;;5007328;28;20210;-76
2023/09/23 05:49:36;;;;;;;5.90;3.38;;;12.80;99.90;;;;;;5005736;28;20215;-76
2023/09/23 05:52:04;;;;;;;7.55;3.85;;;12.90;99.90;;;;;;5007817;28;20231;-76
2023/09/23 05:54:33;;;;;;;7.70;4.28;;;12.90;99.90;;;;;;5006459;28;20211;-76
2023/09/23 05:57:01;;;;;;;5.07;3.80;;;12.90;99.90;;;;;;5009296;28;20688;-76
2023/09/23 05:59:28;;;;;;;4.97;3.37;;;12.90;99.90;;;;;;5007851;28;20214;-76
2023/09/23 06:01:55;;;;;;;3.63;3.13;;;12.80;99.90;;;;;;5008349;28;20226;-76
2023/09/23 06:04:23;;;;;;;6.77;3.83;;;12.90;99.90;;;;;;5004757;28;20227;-76
2023/09/23 06:06:50;;;;;;;4.13;3.72;;;12.90;99.90;;;;;;5008500;28;20693;-76
2023/09/23 06:09:18;;;;;;;5.88;3.55;;;12.80;99.90;;;;;;5006243;28;20666;-76
2023/09/23 06:11:48;;;;;;;4.47;3.33;;;12.80;99.90;;;;;;5006266;28;20203;-76
2023/09/23 06:14:16;;;;;;;3.30;3.00;;;12.80;99.90;;;;;;4998632;28;20226;-76
2023/09/23 06:16:44;;;;;;;7.75;3.55;;;12.90;99.90;;;;;;5003818;28;20208;-77
2023/09/23 06:19:11;;;;;;;4.20;3.43;;;12.90;99.90;;;;;;5007794;28;20686;-76
2023/09/23 06:21:39;;;;;;;6.65;3.55;;;12.90;99.90;;;;;;5007913;28;20318;-77
2023/09/23 06:24:10;;;;;;;5.40;3.90;;;13.00;99.90;;;;;;5009824;28;20219;-76
2023/09/23 06:26:38;;;;;;;7.90;3.80;;;12.90;99.90;;;;;;5014416;28;20200;-77
2023/09/23 06:29:06;;;;;;;6.47;4.27;;;12.90;99.90;;;;;;5014943;28;20200;-77
2023/09/23 06:31:34;;;;;;;7.80;4.30;;;12.90;99.90;;;;;;5006111;28;20215;-77
2023/09/23 06:34:01;;;;;;;5.93;4.30;;;13.00;99.90;;;;;;5006080;28;20219;-76
2023/09/23 06:36:29;;;;;;;7.57;5.00;;;13.00;99.90;;;;;;4999172;28;20705;-76
2023/09/23 06:38:56;;;;;;;4.93;4.43;;;12.90;99.90;;;;;;5010568;28;20204;-76
2023/09/23 06:41:23;;;;;;;8.50;4.70;;;13.00;99.90;;;;;;5012205;28;20188;-76
2023/09/23 06:43:53;;;;;;;8.20;5.60;;;12.90;99.90;;;;;;5017190;28;20691;-76
2023/09/23 06:46:21;;;;;;;6.83;5.07;;;12.90;99.90;;;;;;5027803;28;20649;-76
2023/09/23 06:48:49;;;;;;;6.50;5.00;;;12.90;99.90;;;;;;5031440;28;20210;-76
2023/09/23 06:51:16;;;;;;;6.78;5.40;;;13.00;99.90;;;;;;5032630;28;20198;-76
2023/09/23 06:53:43;;;;;;;5.67;4.93;;;13.00;99.90;;;;;;5031778;28;20229;-75
2023/09/23 06:56:11;;;;;;;6.75;4.75;;;13.00;99.90;;;;;;5048747;28;20222;-76
2023/09/23 06:58:38;;;;;;;9.27;4.78;;;13.00;99.90;;;;;;5046421;28;20202;-76
2023/09/23 07:01:06;;;;;;;8.67;4.80;;;13.00;99.90;;;;;;5031425;28;20674;-75
2023/09/23 07:03:34;;;;;;;6.33;4.53;;;13.00;99.90;;;;;;5036961;28;20232;-76
2023/09/23 07:06:02;;;;;;;4.88;4.32;;;13.10;99.90;;;;;;5026471;28;20198;-76
2023/09/23 07:08:30;;;;;;;7.38;4.20;;;13.10;99.90;;;;;;5040298;28;20207;-76
2023/09/23 07:10:57;;;;;;;4.93;3.90;;;13.10;99.90;;;;;;5034898;28;20213;-76
2023/09/23 07:13:25;;;;;;;8.07;4.50;;;13.20;99.90;;;;;;5049968;28;20711;-76
2023/09/23 07:15:52;;;;;;;5.43;3.97;;;13.10;99.90;;;;;;5030394;28;20226;-76
2023/09/23 07:18:20;;;;;;;6.28;4.00;;;13.20;99.90;;;;;;5030154;28;20209;-76
2023/09/23 07:20:48;;;;;;;7.65;4.38;;;13.20;99.90;;;;;;5028572;28;20199;-76
2023/09/23 07:23:16;;;;;;;5.97;4.22;;;13.10;99.90;;;;;;5039563;28;20217;-76
2023/09/23 07:25:43;;;;;;;5.70;3.70;;;13.10;99.90;;;;;;5044966;28;20194;-76
2023/09/23 07:28:11;;;;;;;7.30;4.57;;;13.30;99.90;;;;;;5022463;28;20199;-75
2023/09/23 07:30:39;;;;;;;5.35;4.00;;;13.30;99.90;;;;;;5031159;28;20195;-75
2023/09/23 07:33:07;;;;;;;4.30;3.90;;;13.20;99.90;;;;;;5036884;28;20226;-75
2023/09/23 07:35:35;;;;;;;3.83;3.30;;;13.20;99.90;;;;;;5033542;28;20676;-75
2023/09/23 07:38:04;;;;;;;4.13;3.63;;;13.20;99.90;;;;;;5024255;28;20210;-75
2023/09/23 07:40:32;;;;;;;5.05;3.90;;;13.30;99.90;;;;;;5024541;28;20190;-75
2023/09/23 07:42:59;;;;;;;7.50;3.60;;;13.30;99.90;;;;;;5035352;28;20688;-75
2023/09/23 07:45:27;;;;;;;4.47;3.47;;;13.30;99.90;;;;;;5027706;28;20202;-75
2023/09/23 07:47:54;;;;;;;3.95;3.58;;;13.20;99.90;;;;;;5035784;28;20198;-75
2023/09/23 07:50:22;;;;;;;5.60;3.40;;;13.30;99.90;;;;;;5026765;28;20198;-75
2023/09/23 07:52:49;;;;;;;6.57;3.88;;;13.20;99.90;;;;;;5032290;28;20548;-75
2023/09/23 07:55:18;;;;;;;6.50;3.22;;;13.30;99.90;;;;;;5031010;28;20221;-75
2023/09/23 07:57:46;;;;;;;5.65;3.42;;;13.40;99.90;;;;;;5034175;28;20210;-75
2023/09/23 08:00:14;;;;;;;5.55;4.03;;;13.40;99.90;;;;;;5035332;28;20198;-75
2023/09/23 08:02:41;;;;;;;5.03;4.07;;;13.30;99.90;;;;;;5035198;28;20230;-75
2023/09/23 08:05:09;;;;;;;5.13;4.00;;;13.40;99.90;;;;;;5027399;28;20680;-76
2023/09/23 08:07:36;;;;;;;5.60;4.05;;;13.30;99.90;;;;;;5030102;28;20199;-75
2023/09/23 08:10:05;;;;;;;6.05;4.18;;;13.40;99.90;;;;;;5030694;28;20199;-76
2023/09/23 08:12:36;;;;;;;4.63;4.03;;;13.50;99.90;;;;;;5035078;28;20232;-75
2023/09/23 08:15:05;;;;;;;6.20;3.75;;;13.60;99.90;;;;;;5028581;28;20198;-75
2023/09/23 08:17:40;;;;;;;3.72;3.15;;;13.60;99.90;;;;;;5028735;28;20210;-75
2023/09/23 08:20:17;;;;;;;5.85;3.80;;;13.60;99.90;;;;;;5036169;28;20584;-75
2023/09/23 08:22:45;;;;;;;5.70;3.50;;;13.50;99.90;;;;;;5031339;28;20229;-75
2023/09/23 08:25:13;;;;;;;5.60;3.75;;;13.60;99.90;;;;;;5048271;28;20194;-75
2023/09/23 08:27:43;;;;;;;6.70;3.78;;;13.60;99.90;;;;;;5043256;28;20640;-75
2023/09/23 08:30:12;;;;;;;5.30;3.50;;;13.60;99.90;;;;;;5029214;28;20214;-75
2023/09/23 08:32:41;;;;;;;6.57;3.78;;;13.70;99.90;;;;;;5048658;28;20214;-76
2023/09/23 08:35:09;;;;;;;5.28;3.30;;;13.70;99.90;;;;;;5043742;28;20206;-76
2023/09/23 08:37:36;;;;;;;4.90;4.13;;;13.80;99.90;;;;;;5020624;28;20568;-75
2023/09/23 08:40:10;;;;;;;6.03;4.30;;;13.90;99.90;;;;;;5042070;28;20206;-75
2023/09/23 08:42:38;;;;;;;5.45;3.58;;;14.00;99.90;;;;;;5030680;28;20226;-75
2023/09/23 08:45:09;;;;;;;6.38;2.92;;;14.00;99.90;;;;;;5032351;28;20206;-76
2023/09/23 08:47:37;;;;;;;5.82;2.90;;;14.10;99.90;;;;;;5047969;28;20206;-75
2023/09/23 08:50:08;;;;;;;5.00;3.60;;;14.10;99.90;;;;;;5031113;28;20211;-75
2023/09/23 08:52:36;;;;;;;4.45;3.13;;;14.10;99.90;;;;;;5031083;28;20718;-75
2023/09/23 08:55:08;;;;;;;4.88;4.35;;;14.10;99.90;;;;;;5029644;28;20195;-76
2023/09/23 08:57:35;;;;;;;6.03;4.05;;;14.10;99.90;;;;;;5033594;28;20686;-75
2023/09/23 09:00:07;;;;;;;5.45;3.72;;;14.10;99.90;;;;;;5027136;28;20206;-75
2023/09/23 09:02:36;;;;;;;5.20;3.90;;;14.20;99.90;;;;;;5045403;28;20684;-76
2023/09/23 09:05:04;;;;;;;5.43;3.53;;;14.20;99.90;;;;;;5037096;28;20678;-75
2023/09/23 09:07:34;;;;;;;7.03;2.65;;;14.30;99.90;;;;;;5029931;28;20204;-75
2023/09/23 09:10:02;;;;;;;4.20;2.92;;;14.30;99.90;;;;;;5042806;28;20202;-76
2023/09/23 09:12:29;;;;;;;7.45;3.92;;;14.40;99.90;;;;;;5048676;28;20221;-76
2023/09/23 09:14:57;;;;;;;6.63;3.17;;;14.40;99.90;;;;;;5024955;28;20208;-75
2023/09/23 09:17:27;;;;;;;4.78;3.05;;;14.40;99.90;;;;;;5028593;28;20221;-75
2023/09/23 09:19:56;;;;;;;9.02;2.83;;;14.30;99.90;;;;;;5045277;28;20198;-75
2023/09/23 09:22:24;;;;;;;3.63;2.80;;;14.40;99.90;;;;;;5049206;28;20237;-75
2023/09/23 09:24:51;;;;;;;5.45;2.60;;;14.60;99.90;;;;;;5032279;28;20198;-76
2023/09/23 09:27:21;;;;;;;3.60;2.50;;;14.60;99.90;;;;;;5031419;28;20202;-76
2023/09/23 09:29:49;;;;;;;3.90;2.50;;;14.60;99.90;;;;;;5045159;28;20222;-76
2023/09/23 09:32:20;;;;;;;4.78;2.63;;;14.70;99.90;;;;;;5031677;28;20222;-76
2023/09/23 09:34:48;;;;;;;7.38;2.40;;;14.70;99.90;;;;;;5031474;28;20202;-77
2023/09/23 09:37:18;;;;;;;5.68;2.42;;;14.80;99.90;;;;;;5031953;28;20214;-76
2023/09/23 09:40:11;;;;;;;;;;;;;;;;;;;;;
2023/09/23 09:43:33;;;;;;;;;;;;;;;;;;;;;
2023/09/23 09:47:12;;;;;;;;;;;;;;;;;;;;;
2023/09/23 09:50:04;;;;;;;3.15;1.92;;;14.90;99.90;;;;;;4849684;29;20216;-77
2023/09/23 09:52:35;;;;;;;3.47;2.15;;;14.90;99.90;;;;;;5004584;28;20306;-76
2023/09/23 09:55:05;;;;;;;3.72;1.70;;;15.00;99.90;;;;;;5040317;28;20213;-76
2023/09/23 09:57:39;;;;;;;3.97;2.17;;;15.10;99.90;;;;;;5030353;28;20226;-76
2023/09/23 10:00:26;;;;;;;4.35;2.45;;;15.20;99.90;;;;;;5029351;28;20214;-76
2023/09/23 10:02:59;;;;;;;2.35;1.75;;;15.30;99.90;;;;;;5024973;28;20219;-76
2023/09/23 10:05:34;;;;;;;3.30;2.30;;;15.40;99.90;;;;;;5034433;28;20570;-76
2023/09/23 10:08:13;;;;;;;4.28;2.20;;;15.40;99.90;;;;;;5026095;28;20190;-76
2023/09/23 10:10:47;;;;;;;2.08;1.75;;;15.60;99.90;;;;;;5030225;28;20216;-76
2023/09/23 10:13:15;;;;;;;4.60;2.20;;;15.60;99.90;;;;;;5033019;28;20225;-76
2023/09/23 10:15:43;;;;;;;3.85;2.35;;;15.70;99.90;;;;;;5031466;28;20211;-77
2023/09/23 10:18:21;;;;;;;3.75;2.50;;;15.50;99.90;;;;;;5031807;28;20221;-76
2023/09/23 10:20:50;;;;;;;2.88;2.25;;;15.70;99.90;;;;;;5029389;28;20206;-76
2023/09/23 10:23:22;;;;;;;3.13;2.20;;;15.70;99.90;;;;;;5050441;28;20233;-76
2023/09/23 10:25:50;;;;;;;3.65;2.38;;;15.80;99.90;;;;;;5050314;28;20194;-76
2023/09/23 10:28:22;;;;;;;3.30;2.20;;;15.90;99.90;;;;;;5031231;28;20191;-76
2023/09/23 10:31:00;;;;;;;3.83;2.17;;;15.90;99.90;;;;;;5026792;28;20191;-75
2023/09/23 10:33:29;;;;;;;3.15;2.22;;;16.20;99.90;;;;;;5025307;28;20221;-75
2023/09/23 10:35:58;;;;;;;2.60;2.33;;;16.10;99.90;;;;;;5046405;28;20202;-75
2023/09/23 10:38:31;;;;;;;3.83;2.50;;;15.80;99.90;;;;;;5045059;28;20229;-75
2023/09/23 10:40:59;;;;;;;3.97;1.98;;;16.00;99.90;;;;;;5030623;28;20198;-75
2023/09/23 10:43:27;;;;;;;3.97;1.90;;;16.30;99.90;;;;;;5033674;28;20221;-76
2023/09/23 10:45:56;;;;;;;4.03;1.50;;;16.50;99.90;;;;;;5048783;28;20213;-76
2023/09/23 10:48:24;;;;;;;6.00;2.00;;;16.70;99.90;;;;;;5033094;28;20198;-75
2023/09/23 10:50:51;;;;;;;3.88;1.40;;;16.70;99.90;;;;;;5029871;28;20561;-76
2023/09/23 10:53:21;;;;;;;3.05;2.00;;;16.70;99.90;;;;;;5033210;28;20229;-76
2023/09/23 10:55:50;;;;;;;6.00;1.67;;;16.60;99.90;;;;;;5031675;28;20197;-75
2023/09/23 10:58:19;;;;;;;3.83;2.03;;;16.40;99.90;;;;;;5031257;28;20233;-75
2023/09/23 11:00:46;;;;;;;3.50;2.15;;;16.20;99.90;;;;;;5033121;28;20209;-75
2023/09/23 11:03:16;;;;;;;3.13;2.08;;;16.30;99.90;;;;;;5030240;28;20500;-76
2023/09/23 11:05:45;;;;;;;2.88;2.20;;;16.30;99.90;;;;;;5035361;28;20207;-75
2023/09/23 11:08:14;;;;;;;3.70;1.92;;;16.30;99.90;;;;;;5033321;28;20202;-76
2023/09/23 11:10:42;;;;;;;5.47;2.33;;;16.40;99.90;;;;;;5029103;28;20207;-76
2023/09/23 11:13:15;;;;;;;3.00;2.28;;;16.60;99.90;;;;;;5028719;28;20222;-76
2023/09/23 11:15:45;;;;;;;4.88;2.40;;;16.90;99.90;;;;;;5026324;28;20214;-76
2023/09/23 11:18:14;;;;;;;4.90;2.22;;;16.90;99.90;;;;;;5025536;28;20226;-76
2023/09/23 11:20:43;;;;;;;4.50;2.17;;;16.60;99.90;;;;;;5026503;28;20218;-75
2023/09/23 11:23:11;;;;;;;4.57;2.20;;;16.70;99.90;;;;;;5022364;28;20231;-76
2023/09/23 11:25:42;;;;;;;3.70;1.92;;;16.80;99.90;;;;;;5048859;28;20202;-76
2023/09/23 11:28:17;;;;;;;3.42;2.05;;;16.90;99.90;;;;;;5025705;28;20207;-76
2023/09/23 11:30:44;;;;;;;2.50;1.88;;;16.90;99.90;;;;;;5050252;28;20217;-76
2023/09/23 11:33:16;;;;;;;3.65;2.65;;;17.00;99.90;;;;;;5042279;28;20221;-77
2023/09/23 11:35:44;;;;;;;4.35;2.03;;;16.70;99.90;;;;;;5024085;28;20664;-76
2023/09/23 11:38:12;;;;;;;2.47;1.92;;;16.70;99.90;;;;;;5034251;28;20222;-76
2023/09/23 11:40:40;;;;;;;4.13;1.90;;;16.80;99.90;;;;;;5030731;28;20205;-76
2023/09/23 11:43:08;;;;;;;4.68;2.03;;;17.20;99.90;;;;;;5027161;28;20223;-77
2023/09/23 11:45:39;;;;;;;2.08;1.77;;;16.90;99.90;;;;;;5029801;28;20210;-76
2023/09/23 11:48:08;;;;;;;4.78;2.40;;;16.90;99.90;;;;;;5027160;28;20210;-76
2023/09/23 11:50:36;;;;;;;4.00;2.63;;;16.90;99.90;;;;;;5037193;28;20202;-76
2023/09/23 11:53:03;;;;;;;3.38;1.88;;;17.00;99.90;;;;;;5044306;28;20218;-77
2023/09/23 11:55:32;;;;;;;2.13;1.90;;;16.90;99.90;;;;;;5034445;28;20695;-77
2023/09/23 11:58:00;;;;;;;2.47;1.60;;;16.70;99.90;;;;;;5031234;28;20710;-76
2023/09/23 12:00:28;;;;;;;3.05;1.65;;;16.90;99.90;;;;;;5029505;28;20209;-76
2023/09/23 12:02:57;;;;;;;3.58;2.08;;;16.60;99.90;;;;;;5026518;28;20230;-76
2023/09/23 12:05:28;;;;;;;2.78;1.85;;;16.90;99.90;;;;;;5035651;28;20202;-76
2023/09/23 12:07:58;;;;;;;2.35;1.42;;;17.20;99.90;;;;;;5030507;28;20232;-76
2023/09/23 12:10:27;;;;;;;2.45;1.50;;;17.60;99.90;;;;;;5032752;28;20210;-76
2023/09/23 12:12:56;;;;;;;2.83;1.60;;;17.90;99.90;;;;;;5051772;28;20223;-77
2023/09/23 12:15:23;;;;;;;3.63;1.15;;;17.50;99.90;;;;;;5051011;28;20201;-76
2023/09/23 12:17:51;;;;;;;2.05;1.50;;;17.70;99.90;;;;;;5032409;28;20293;-76
2023/09/23 12:20:22;;;;;;;2.15;1.52;;;17.70;99.90;;;;;;5028976;28;20212;-77
2023/09/23 12:22:52;;;;;;;3.85;1.70;;;17.60;99.90;;;;;;5026906;28;20234;-76
2023/09/23 12:25:19;;;;;;;3.63;1.88;;;17.30;99.90;;;;;;5032601;28;20215;-76
2023/09/23 12:27:47;;;;;;;2.42;1.40;;;17.60;99.90;;;;;;5033738;28;20225;-76
2023/09/23 12:30:17;;;;;;;1.90;1.50;;;17.50;99.90;;;;;;5051411;28;20182;-76
2023/09/23 12:32:45;;;;;;;3.70;1.88;;;17.40;99.90;;;;;;5033126;28;20714;-76
2023/09/23 12:35:12;;;;;;;3.35;1.70;;;17.30;99.90;;;;;;5034255;28;20206;-76
2023/09/23 12:37:41;;;;;;;2.35;1.35;;;17.10;99.90;;;;;;5033828;28;20210;-76
2023/09/23 12:40:10;;;;;;;3.03;1.50;;;17.20;99.90;;;;;;5051274;28;20190;-76
2023/09/23 12:42:37;;;;;;;2.97;1.50;;;17.30;99.90;;;;;;5034279;28;20218;-76
2023/09/23 12:45:07;;;;;;;4.45;1.52;;;17.10;99.90;;;;;;5032726;28;20215;-76
2023/09/23 12:47:34;;;;;;;3.15;1.52;;;17.10;99.90;;;;;;5034102;28;20679;-76
2023/09/23 12:50:02;;;;;;;2.28;1.42;;;17.10;99.90;;;;;;5049670;28;20190;-76
2023/09/23 12:52:29;;;;;;;2.53;1.60;;;17.10;99.90;;;;;;5033978;28;20581;-76
2023/09/23 12:54:58;;;;;;;3.15;1.60;;;17.00;99.90;;;;;;5033885;28;20206;-76
2023/09/23 12:57:26;;;;;;;3.55;1.30;;;17.10;99.90;;;;;;5032013;28;20217;-77
2023/09/23 12:59:53;;;;;;;4.45;1.30;;;17.30;99.90;;;;;;5033047;28;20213;-76
2023/09/23 13:02:21;;;;;;;3.38;1.35;;;17.30;99.90;;;;;;5033715;28;20222;-76